sensor_id;sensor_type;location;lat;lon;timestamp;pressure;altitude;pressure_sealevel;temperature;humidity
57568;BME280;43403;51.948;5.922;2023-01-23T00:01:48;103475.88;;;3.11;100.00
57568;BME280;43403;51.948;5.922;2023-01-23T00:04:15;103469.81;;;3.14;100.00
57568;BME280;43403;51.948;5.922;2023-01-23T00:06:41;103469.81;;;3.14;100.00
57568;BME280;43403;51.948;5.922;2023-01-23T00:09:08;103464.63;;;3.14;100.00
57568;BME280;43403;51.948;5.922;2023-01-23T00:11:34;103468.94;;;3.13;100.00
57568;BME280;43403;51.948;5.922;2023-01-23T00:14:01;103463.69;;;3.16;100.00
57568;BME280;43403;51.948;5.922;2023-01-23T00:16:29;103461.09;;;3.16;100.00
57568;BME280;43403;51.948;5.922;2023-01-23T00:18:56;103463.72;;;3.15;100.00
57568;BME280;43403;51.948;5.922;2023-01-23T00:21:24;103460.31;;;3.13;100.00
57568;BME280;43403;51.948;5.922;2023-01-23T00:23:51;103456.91;;;3.09;100.00
57568;BME280;43403;51.948;5.922;2023-01-23T00:26:19;103465.59;;;3.08;100.00
57568;BME280;43403;51.948;5.922;2023-01-23T00:28:46;103472.63;;;3.03;100.00
57568;BME280;43403;51.948;5.922;2023-01-23T00:31:14;103475.28;;;3.00;100.00
57568;BME280;43403;51.948;5.922;2023-01-23T00:33:41;103470.81;;;3.07;100.00
57568;BME280;43403;51.948;5.922;2023-01-23T00:36:08;103477.78;;;3.05;100.00
57568;BME280;43403;51.948;5.922;2023-01-23T00:38:34;103487.38;;;3.00;100.00
57568;BME280;43403;51.948;5.922;2023-01-23T00:41:01;103491.59;;;3.04;100.00
57568;BME280;43403;51.948;5.922;2023-01-23T00:43:28;103489.00;;;3.05;100.00
57568;BME280;43403;51.948;5.922;2023-01-23T00:45:54;103493.22;;;3.09;100.00
57568;BME280;43403;51.948;5.922;2023-01-23T00:48:21;103491.50;;;3.10;100.00
57568;BME280;43403;51.948;5.922;2023-01-23T00:50:47;103486.31;;;3.10;100.00
57568;BME280;43403;51.948;5.922;2023-01-23T00:53:14;103483.72;;;3.10;100.00
57568;BME280;43403;51.948;5.922;2023-01-23T00:55:40;103479.41;;;3.09;100.00
57568;BME280;43403;51.948;5.922;2023-01-23T00:58:07;103482.94;;;3.06;100.00
57568;BME280;43403;51.948;5.922;2023-01-23T01:00:34;103488.94;;;3.08;100.00
57568;BME280;43403;51.948;5.922;2023-01-23T01:03:01;103480.34;;;3.06;100.00
57568;BME280;43403;51.948;5.922;2023-01-23T01:05:28;103481.25;;;3.04;100.00
57568;BME280;43403;51.948;5.922;2023-01-23T01:07:54;103476.03;;;3.05;100.00
57568;BME280;43403;51.948;5.922;2023-01-23T01:10:20;103478.63;;;3.05;100.00
57568;BME280;43403;51.948;5.922;2023-01-23T01:12:47;103479.47;;;3.06;100.00
57568;BME280;43403;51.948;5.922;2023-01-23T01:15:14;103477.75;;;3.06;100.00
57568;BME280;43403;51.948;5.922;2023-01-23T01:17:40;103482.06;;;3.06;100.00
57568;BME280;43403;51.948;5.922;2023-01-23T01:20:07;103482.13;;;3.03;100.00
57568;BME280;43403;51.948;5.922;2023-01-23T01:22:33;103489.94;;;3.01;100.00
57568;BME280;43403;51.948;5.922;2023-01-23T01:24:59;103489.06;;;3.02;100.00
57568;BME280;43403;51.948;5.922;2023-01-23T01:27:27;103489.97;;;3.00;100.00
57568;BME280;43403;51.948;5.922;2023-01-23T01:29:53;103491.59;;;3.04;100.00
57568;BME280;43403;51.948;5.922;2023-01-23T01:32:20;103496.81;;;3.04;100.00
57568;BME280;43403;51.948;5.922;2023-01-23T01:34:46;103499.44;;;3.02;100.00
57568;BME280;43403;51.948;5.922;2023-01-23T01:37:12;103498.56;;;3.02;100.00
57568;BME280;43403;51.948;5.922;2023-01-23T01:39:38;103496.78;;;3.05;100.00
57568;BME280;43403;51.948;5.922;2023-01-23T01:42:05;103508.00;;;3.06;100.00
57568;BME280;43403;51.948;5.922;2023-01-23T01:47:16;103494.97;;;3.09;100.00
57568;BME280;43403;51.948;5.922;2023-01-23T01:49:43;103503.56;;;3.12;100.00
57568;BME280;43403;51.948;5.922;2023-01-23T01:52:09;103498.34;;;3.14;100.00
57568;BME280;43403;51.948;5.922;2023-01-23T01:54:39;103497.44;;;3.15;100.00
57568;BME280;43403;51.948;5.922;2023-01-23T01:59:34;103496.47;;;3.19;100.00
57568;BME280;43403;51.948;5.922;2023-01-23T02:02:04;103499.06;;;3.21;100.00
57568;BME280;43403;51.948;5.922;2023-01-23T02:04:34;103505.09;;;3.21;100.00
57568;BME280;43403;51.948;5.922;2023-01-23T02:07:02;103494.75;;;3.20;100.00
57568;BME280;43403;51.948;5.922;2023-01-23T02:09:30;103494.69;;;3.23;100.00
57568;BME280;43403;51.948;5.922;2023-01-23T02:11:59;103495.59;;;3.22;100.00
57568;BME280;43403;51.948;5.922;2023-01-23T02:14:26;103492.09;;;3.23;100.00
57568;BME280;43403;51.948;5.922;2023-01-23T02:16:52;103496.41;;;3.24;100.00
57568;BME280;43403;51.948;5.922;2023-01-23T02:19:28;103498.22;;;3.20;100.00
57568;BME280;43403;51.948;5.922;2023-01-23T02:22:01;103499.91;;;3.21;100.00
57568;BME280;43403;51.948;5.922;2023-01-23T02:24:41;103504.25;;;3.21;100.00
57568;BME280;43403;51.948;5.922;2023-01-23T02:27:10;103505.13;;;3.20;100.00
57568;BME280;43403;51.948;5.922;2023-01-23T02:29:43;103504.22;;;3.22;100.00
57568;BME280;43403;51.948;5.922;2023-01-23T02:32:10;103505.13;;;3.20;100.00
57568;BME280;43403;51.948;5.922;2023-01-23T02:34:36;103505.13;;;3.20;100.00
57568;BME280;43403;51.948;5.922;2023-01-23T02:37:03;103511.25;;;3.15;100.00
57568;BME280;43403;51.948;5.922;2023-01-23T02:39:31;103509.44;;;3.19;100.00
57568;BME280;43403;51.948;5.922;2023-01-23T02:41:58;103508.56;;;3.20;100.00
57568;BME280;43403;51.948;5.922;2023-01-23T02:44:27;103507.78;;;3.16;100.00
57568;BME280;43403;51.948;5.922;2023-01-23T02:46:55;103510.31;;;3.20;100.00
57568;BME280;43403;51.948;5.922;2023-01-23T02:49:22;103504.22;;;3.22;100.00
57568;BME280;43403;51.948;5.922;2023-01-23T02:51:49;103501.53;;;3.25;100.00
57568;BME280;43403;51.948;5.922;2023-01-23T02:54:15;103505.00;;;3.26;100.00
57568;BME280;43403;51.948;5.922;2023-01-23T02:56:42;103508.44;;;3.26;100.00
57568;BME280;43403;51.948;5.922;2023-01-23T02:59:08;103509.28;;;3.27;100.00
57568;BME280;43403;51.948;5.922;2023-01-23T03:01:53;103513.53;;;3.31;100.00
57568;BME280;43403;51.948;5.922;2023-01-23T03:04:20;103523.88;;;3.32;100.00
57568;BME280;43403;51.948;5.922;2023-01-23T03:06:46;103523.00;;;3.33;100.00
57568;BME280;43403;51.948;5.922;2023-01-23T03:09:13;103523.81;;;3.35;100.00
57568;BME280;43403;51.948;5.922;2023-01-23T03:11:41;103524.66;;;3.36;100.00
57568;BME280;43403;51.948;5.922;2023-01-23T03:14:09;103529.00;;;3.35;100.00
57568;BME280;43403;51.948;5.922;2023-01-23T03:16:36;103527.16;;;3.41;100.00
57568;BME280;43403;51.948;5.922;2023-01-23T03:19:04;103527.19;;;3.39;100.00
57568;BME280;43403;51.948;5.922;2023-01-23T03:21:34;103522.94;;;3.35;100.00
57568;BME280;43403;51.948;5.922;2023-01-23T03:24:04;103529.84;;;3.38;100.00
57568;BME280;43403;51.948;5.922;2023-01-23T03:26:31;103525.50;;;3.38;100.00
57568;BME280;43403;51.948;5.922;2023-01-23T03:28:57;103526.34;;;3.39;100.00
57568;BME280;43403;51.948;5.922;2023-01-23T03:31:42;103521.13;;;3.40;100.00
57568;BME280;43403;51.948;5.922;2023-01-23T03:34:09;103520.28;;;3.38;100.00
57568;BME280;43403;51.948;5.922;2023-01-23T03:36:35;103511.59;;;3.39;100.00
57568;BME280;43403;51.948;5.922;2023-01-23T03:39:03;103520.31;;;3.36;100.00
57568;BME280;43403;51.948;5.922;2023-01-23T03:41:48;103516.94;;;3.33;100.00
57568;BME280;43403;51.948;5.922;2023-01-23T03:44:16;103516.06;;;3.34;100.00
57568;BME280;43403;51.948;5.922;2023-01-23T03:46:44;103515.22;;;3.33;100.00
57568;BME280;43403;51.948;5.922;2023-01-23T03:49:11;103521.28;;;3.32;100.00
57568;BME280;43403;51.948;5.922;2023-01-23T03:51:37;103531.69;;;3.31;100.00
57568;BME280;43403;51.948;5.922;2023-01-23T03:54:03;103529.16;;;3.29;100.00
57568;BME280;43403;51.948;5.922;2023-01-23T03:56:30;103531.78;;;3.28;100.00
57568;BME280;43403;51.948;5.922;2023-01-23T03:58:56;103529.16;;;3.29;100.00
57568;BME280;43403;51.948;5.922;2023-01-23T04:01:24;103535.16;;;3.31;100.00
57568;BME280;43403;51.948;5.922;2023-01-23T04:03:50;103529.06;;;3.32;100.00
57568;BME280;43403;51.948;5.922;2023-01-23T04:06:18;103516.09;;;3.32;100.00
57568;BME280;43403;51.948;5.922;2023-01-23T04:08:45;103522.94;;;3.35;100.00
57568;BME280;43403;51.948;5.922;2023-01-23T04:11:11;103527.25;;;3.38;100.00
57568;BME280;43403;51.948;5.922;2023-01-23T04:13:38;103528.09;;;3.36;100.00
57568;BME280;43403;51.948;5.922;2023-01-23T04:16:05;103529.84;;;3.36;100.00
57568;BME280;43403;51.948;5.922;2023-01-23T04:18:32;103533.28;;;3.38;100.00
57568;BME280;43403;51.948;5.922;2023-01-23T04:20:58;103535.03;;;3.36;100.00
57568;BME280;43403;51.948;5.922;2023-01-23T04:23:25;103535.03;;;3.38;100.00
57568;BME280;43403;51.948;5.922;2023-01-23T04:25:51;103529.84;;;3.36;100.00
57568;BME280;43403;51.948;5.922;2023-01-23T04:28:18;103531.63;;;3.34;100.00
57568;BME280;43403;51.948;5.922;2023-01-23T04:30:44;103536.69;;;3.40;100.00
57568;BME280;43403;51.948;5.922;2023-01-23T04:33:11;103538.34;;;3.43;100.00
57568;BME280;43403;51.948;5.922;2023-01-23T04:35:37;103538.31;;;3.46;100.00
57568;BME280;43403;51.948;5.922;2023-01-23T04:38:04;103536.63;;;3.43;100.00
57568;BME280;43403;51.948;5.922;2023-01-23T04:40:30;103539.22;;;3.43;100.00
57568;BME280;43403;51.948;5.922;2023-01-23T04:42:56;103537.47;;;3.44;100.00
57568;BME280;43403;51.948;5.922;2023-01-23T04:45:22;103537.47;;;3.44;100.00
57568;BME280;43403;51.948;5.922;2023-01-23T04:47:49;103539.22;;;3.43;100.00
57568;BME280;43403;51.948;5.922;2023-01-23T04:50:15;103544.41;;;3.43;100.00
57568;BME280;43403;51.948;5.922;2023-01-23T04:52:42;103546.22;;;3.40;100.00
57568;BME280;43403;51.948;5.922;2023-01-23T04:55:08;103550.50;;;3.41;100.00
57568;BME280;43403;51.948;5.922;2023-01-23T04:57:35;103545.44;;;3.36;100.00
57568;BME280;43403;51.948;5.922;2023-01-23T05:00:01;103547.88;;;3.42;100.00
57568;BME280;43403;51.948;5.922;2023-01-23T05:02:28;103549.66;;;3.40;100.00
57568;BME280;43403;51.948;5.922;2023-01-23T05:04:54;103554.81;;;3.42;100.00
57568;BME280;43403;51.948;5.922;2023-01-23T05:07:21;103548.81;;;3.40;100.00
57568;BME280;43403;51.948;5.922;2023-01-23T05:09:47;103552.28;;;3.39;100.00
57568;BME280;43403;51.948;5.922;2023-01-23T05:12:13;103560.16;;;3.34;100.00
57568;BME280;43403;51.948;5.922;2023-01-23T05:14:40;103560.97;;;3.38;100.00
57568;BME280;43403;51.948;5.922;2023-01-23T05:17:07;103564.44;;;3.36;100.00
57568;BME280;43403;51.948;5.922;2023-01-23T05:19:33;103560.97;;;3.38;100.00
57568;BME280;43403;51.948;5.922;2023-01-23T05:21:59;103566.19;;;3.36;100.00
57568;BME280;43403;51.948;5.922;2023-01-23T05:24:26;103566.09;;;3.39;100.00
57568;BME280;43403;51.948;5.922;2023-01-23T05:26:52;103565.28;;;3.37;100.00
57568;BME280;43403;51.948;5.922;2023-01-23T05:29:18;103556.59;;;3.40;100.00
57568;BME280;43403;51.948;5.922;2023-01-23T05:31:45;103560.84;;;3.42;100.00
57568;BME280;43403;51.948;5.922;2023-01-23T05:34:11;103566.97;;;3.40;100.00
57568;BME280;43403;51.948;5.922;2023-01-23T05:36:38;103572.19;;;3.38;100.00
57568;BME280;43403;51.948;5.922;2023-01-23T05:39:04;103574.75;;;3.40;100.00
57568;BME280;43403;51.948;5.922;2023-01-23T05:41:31;103579.94;;;3.41;100.00
57568;BME280;43403;51.948;5.922;2023-01-23T05:43:57;103574.75;;;3.40;100.00
57568;BME280;43403;51.948;5.922;2023-01-23T05:46:23;103576.44;;;3.42;100.00
57568;BME280;43403;51.948;5.922;2023-01-23T05:48:50;103579.03;;;3.41;100.00
57568;BME280;43403;51.948;5.922;2023-01-23T05:51:16;103579.94;;;3.41;100.00
57568;BME280;43403;51.948;5.922;2023-01-23T05:53:43;103566.84;;;3.46;100.00
57568;BME280;43403;51.948;5.922;2023-01-23T05:56:10;103573.78;;;3.45;100.00
57568;BME280;43403;51.948;5.922;2023-01-23T05:58:36;103573.78;;;3.45;100.00
57568;BME280;43403;51.948;5.922;2023-01-23T06:01:03;103578.06;;;3.46;100.00
57568;BME280;43403;51.948;5.922;2023-01-23T06:03:29;103581.56;;;3.45;100.00
57568;BME280;43403;51.948;5.922;2023-01-23T06:05:55;103581.56;;;3.45;100.00
57568;BME280;43403;51.948;5.922;2023-01-23T06:08:22;103585.84;;;3.46;100.00
57568;BME280;43403;51.948;5.922;2023-01-23T06:10:48;103591.06;;;3.45;100.00
57568;BME280;43403;51.948;5.922;2023-01-23T06:13:14;103595.31;;;3.49;100.00
57568;BME280;43403;51.948;5.922;2023-01-23T06:15:41;103594.44;;;3.50;100.00
57568;BME280;43403;51.948;5.922;2023-01-23T06:18:07;103596.19;;;3.49;100.00
57568;BME280;43403;51.948;5.922;2023-01-23T06:20:33;103601.38;;;3.49;100.00
57568;BME280;43403;51.948;5.922;2023-01-23T06:23:00;103599.66;;;3.48;100.00
57568;BME280;43403;51.948;5.922;2023-01-23T06:25:26;103603.06;;;3.50;100.00
57568;BME280;43403;51.948;5.922;2023-01-23T06:27:52;103599.59;;;3.51;100.00
57568;BME280;43403;51.948;5.922;2023-01-23T06:30:20;103603.88;;;3.54;100.00
57568;BME280;43403;51.948;5.922;2023-01-23T06:32:47;103601.34;;;3.51;100.00
57568;BME280;43403;51.948;5.922;2023-01-23T06:35:13;103595.22;;;3.55;100.00
57568;BME280;43403;51.948;5.922;2023-01-23T06:37:39;103602.16;;;3.53;100.00
57568;BME280;43403;51.948;5.922;2023-01-23T06:40:06;103596.91;;;3.54;100.00
57568;BME280;43403;51.948;5.922;2023-01-23T06:42:33;103599.56;;;3.53;100.00
57568;BME280;43403;51.948;5.922;2023-01-23T06:44:59;103596.97;;;3.53;100.00
57568;BME280;43403;51.948;5.922;2023-01-23T06:47:25;103596.06;;;3.54;100.00
57568;BME280;43403;51.948;5.922;2023-01-23T06:49:52;103604.66;;;3.58;100.00
57568;BME280;43403;51.948;5.922;2023-01-23T06:52:18;103601.09;;;3.63;100.00
57568;BME280;43403;51.948;5.922;2023-01-23T06:54:44;103607.06;;;3.67;100.00
57568;BME280;43403;51.948;5.922;2023-01-23T06:57:11;103609.75;;;3.62;100.00
57568;BME280;43403;51.948;5.922;2023-01-23T06:59:39;103607.97;;;3.64;100.00
57568;BME280;43403;51.948;5.922;2023-01-23T07:02:05;103612.34;;;3.62;100.00
57568;BME280;43403;51.948;5.922;2023-01-23T07:04:33;103612.34;;;3.61;100.00
57568;BME280;43403;51.948;5.922;2023-01-23T07:07:00;103620.09;;;3.64;100.00
57568;BME280;43403;51.948;5.922;2023-01-23T07:09:26;103618.34;;;3.64;100.00
57568;BME280;43403;51.948;5.922;2023-01-23T07:11:53;103622.63;;;3.67;100.00
57568;BME280;43403;51.948;5.922;2023-01-23T07:14:19;103625.28;;;3.64;100.00
57568;BME280;43403;51.948;5.922;2023-01-23T07:16:45;103617.50;;;3.64;100.00
57568;BME280;43403;51.948;5.922;2023-01-23T07:19:12;103620.94;;;3.64;100.00
57568;BME280;43403;51.948;5.922;2023-01-23T07:21:38;103615.81;;;3.63;100.00
57568;BME280;43403;51.948;5.922;2023-01-23T07:24:05;103627.03;;;3.63;100.00
57568;BME280;43403;51.948;5.922;2023-01-23T07:26:31;103625.28;;;3.64;100.00
57568;BME280;43403;51.948;5.922;2023-01-23T07:28:58;103635.63;;;3.67;100.00
57568;BME280;43403;51.948;5.922;2023-01-23T07:31:25;103629.56;;;3.66;100.00
57568;BME280;43403;51.948;5.922;2023-01-23T07:33:51;103633.06;;;3.64;100.00
57568;BME280;43403;51.948;5.922;2023-01-23T07:36:18;103641.66;;;3.67;100.00
57568;BME280;43403;51.948;5.922;2023-01-23T07:38:44;103642.50;;;3.68;100.00
57568;BME280;43403;51.948;5.922;2023-01-23T07:41:11;103648.53;;;3.68;100.00
57568;BME280;43403;51.948;5.922;2023-01-23T07:43:37;103650.25;;;3.71;100.00
57568;BME280;43403;51.948;5.922;2023-01-23T07:46:04;103651.13;;;3.70;100.00
57568;BME280;43403;51.948;5.922;2023-01-23T07:48:30;103658.91;;;3.70;100.00
57568;BME280;43403;51.948;5.922;2023-01-23T07:50:59;103659.75;;;3.70;100.00
57568;BME280;43403;51.948;5.922;2023-01-23T07:53:26;103664.03;;;3.73;100.00
57568;BME280;43403;51.948;5.922;2023-01-23T07:55:53;103661.47;;;3.71;100.00
57568;BME280;43403;51.948;5.922;2023-01-23T07:58:20;103660.63;;;3.71;100.00
57568;BME280;43403;51.948;5.922;2023-01-23T08:00:46;103656.31;;;3.70;100.00
57568;BME280;43403;51.948;5.922;2023-01-23T08:03:13;103662.28;;;3.73;100.00
57568;BME280;43403;51.948;5.922;2023-01-23T08:05:39;103662.28;;;3.75;100.00
57568;BME280;43403;51.948;5.922;2023-01-23T08:08:08;103669.25;;;3.71;100.00
57568;BME280;43403;51.948;5.922;2023-01-23T08:10:39;103676.22;;;3.71;100.00
57568;BME280;43403;51.948;5.922;2023-01-23T08:13:06;103677.00;;;3.74;100.00
57568;BME280;43403;51.948;5.922;2023-01-23T08:15:32;103682.09;;;3.79;100.00
57568;BME280;43403;51.948;5.922;2023-01-23T08:17:58;103673.41;;;3.80;100.00
57568;BME280;43403;51.948;5.922;2023-01-23T08:20:25;103678.56;;;3.82;100.00
57568;BME280;43403;51.948;5.922;2023-01-23T08:22:51;103678.56;;;3.82;100.00
57568;BME280;43403;51.948;5.922;2023-01-23T08:25:18;103683.69;;;3.85;100.00
57568;BME280;43403;51.948;5.922;2023-01-23T08:27:44;103684.56;;;3.84;100.00
57568;BME280;43403;51.948;5.922;2023-01-23T08:30:11;103691.53;;;3.83;100.00
57568;BME280;43403;51.948;5.922;2023-01-23T08:32:37;103678.53;;;3.83;100.00
57568;BME280;43403;51.948;5.922;2023-01-23T08:35:03;103676.72;;;3.87;100.00
57568;BME280;43403;51.948;5.922;2023-01-23T08:37:30;103686.28;;;3.86;100.00
57568;BME280;43403;51.948;5.922;2023-01-23T08:39:58;103689.59;;;3.93;100.00
57568;BME280;43403;51.948;5.922;2023-01-23T08:42:25;103681.75;;;3.96;100.00
57568;BME280;43403;51.948;5.922;2023-01-23T08:44:51;103686.06;;;3.95;100.00
57568;BME280;43403;51.948;5.922;2023-01-23T08:47:17;103681.78;;;3.94;100.00
57568;BME280;43403;51.948;5.922;2023-01-23T08:49:44;103680.91;;;3.94;100.00
57568;BME280;43403;51.948;5.922;2023-01-23T08:52:10;103686.13;;;3.94;100.00
57568;BME280;43403;51.948;5.922;2023-01-23T08:54:36;103691.34;;;3.92;100.00
57568;BME280;43403;51.948;5.922;2023-01-23T08:57:03;103693.91;;;3.94;100.00
57568;BME280;43403;51.948;5.922;2023-01-23T08:59:30;103695.50;;;4.00;100.00
57568;BME280;43403;51.948;5.922;2023-01-23T09:01:56;103699.78;;;4.02;100.00
57568;BME280;43403;51.948;5.922;2023-01-23T09:04:22;103708.38;;;4.06;100.00
57568;BME280;43403;51.948;5.922;2023-01-23T09:06:49;103701.34;;;4.09;100.00
57568;BME280;43403;51.948;5.922;2023-01-23T09:09:15;103698.66;;;4.14;100.00
57568;BME280;43403;51.948;5.922;2023-01-23T09:11:42;103697.75;;;4.15;100.00
57568;BME280;43403;51.948;5.922;2023-01-23T09:14:08;103689.88;;;4.20;100.00
57568;BME280;43403;51.948;5.922;2023-01-23T09:16:34;103690.72;;;4.20;100.00
57568;BME280;43403;51.948;5.922;2023-01-23T09:19:01;103684.63;;;4.21;100.00
57568;BME280;43403;51.948;5.922;2023-01-23T09:21:27;103678.53;;;4.24;100.00
57568;BME280;43403;51.948;5.922;2023-01-23T09:23:53;103672.50;;;4.22;100.00
57568;BME280;43403;51.948;5.922;2023-01-23T09:26:21;103676.75;;;4.26;100.00
57568;BME280;43403;51.948;5.922;2023-01-23T09:28:47;103679.31;;;4.27;100.00
57568;BME280;43403;51.948;5.922;2023-01-23T09:31:14;103676.72;;;4.27;100.00
57568;BME280;43403;51.948;5.922;2023-01-23T09:33:40;103681.78;;;4.32;100.00
57568;BME280;43403;51.948;5.922;2023-01-23T09:36:07;103686.09;;;4.33;100.00
57568;BME280;43403;51.948;5.922;2023-01-23T09:38:34;103690.38;;;4.35;100.00
57568;BME280;43403;51.948;5.922;2023-01-23T09:41:06;103695.47;;;4.40;100.00
57568;BME280;43403;51.948;5.922;2023-01-23T09:43:36;103707.53;;;4.43;100.00
57568;BME280;43403;51.948;5.922;2023-01-23T09:46:06;103712.63;;;4.47;100.00
57568;BME280;43403;51.948;5.922;2023-01-23T09:48:47;103715.38;;;4.41;100.00
57568;BME280;43403;51.948;5.922;2023-01-23T09:51:57;103712.78;;;4.41;100.00
57568;BME280;43403;51.948;5.922;2023-01-23T09:54:06;103720.59;;;4.41;100.00
57568;BME280;43403;51.948;5.922;2023-01-23T09:56:40;103723.13;;;4.43;100.00
57568;BME280;43403;51.948;5.922;2023-01-23T10:01:35;103721.34;;;4.45;100.00
57568;BME280;43403;51.948;5.922;2023-01-23T10:04:03;103721.31;;;4.46;100.00
57568;BME280;43403;51.948;5.922;2023-01-23T10:06:30;103722.09;;;4.50;100.00
57568;BME280;43403;51.948;5.922;2023-01-23T10:16:53;103720.13;;;4.60;100.00
57568;BME280;43403;51.948;5.922;2023-01-23T10:19:33;103713.09;;;4.65;100.00
57568;BME280;43403;51.948;5.922;2023-01-23T10:22:09;103715.59;;;4.68;100.00
57568;BME280;43403;51.948;5.922;2023-01-23T10:24:48;103718.13;;;4.72;100.00
57568;BME280;43403;51.948;5.922;2023-01-23T10:27:28;103715.50;;;4.72;100.00
57568;BME280;43403;51.948;5.922;2023-01-23T10:29:57;103713.78;;;4.71;100.00
57568;BME280;43403;51.948;5.922;2023-01-23T10:32:25;103714.53;;;4.77;100.00
57568;BME280;43403;51.948;5.922;2023-01-23T10:35:02;103712.81;;;4.75;100.00
57568;BME280;43403;51.948;5.922;2023-01-23T10:37:34;103714.44;;;4.80;100.00
57568;BME280;43403;51.948;5.922;2023-01-23T10:40:10;103713.53;;;4.82;100.00
57568;BME280;43403;51.948;5.922;2023-01-23T10:42:37;103709.16;;;4.84;100.00
57568;BME280;43403;51.948;5.922;2023-01-23T10:45:04;103710.78;;;4.88;100.00
57568;BME280;43403;51.948;5.922;2023-01-23T10:47:33;103704.59;;;4.92;100.00
57568;BME280;43403;51.948;5.922;2023-01-23T10:50:02;103716.69;;;4.95;100.00
57568;BME280;43403;51.948;5.922;2023-01-23T10:54:59;103720.03;;;5.00;100.00
57568;BME280;43403;51.948;5.922;2023-01-23T10:57:27;103708.81;;;4.98;100.00
57568;BME280;43403;51.948;5.922;2023-01-23T11:00:03;103709.53;;;5.03;100.00
57568;BME280;43403;51.948;5.922;2023-01-23T11:02:34;103701.88;;;4.97;100.00
57568;BME280;43403;51.948;5.922;2023-01-23T11:05:08;103706.88;;;5.05;100.00
57568;BME280;43403;51.948;5.922;2023-01-23T11:07:52;103708.25;;;5.20;100.00
57568;BME280;43403;51.948;5.922;2023-01-23T11:10:22;103723.72;;;5.24;100.00
57568;BME280;43403;51.948;5.922;2023-01-23T11:12:49;103714.94;;;5.28;100.00
57568;BME280;43403;51.948;5.922;2023-01-23T11:15:24;103721.06;;;5.27;100.00
57568;BME280;43403;51.948;5.922;2023-01-23T11:17:51;103710.50;;;5.32;100.00
57568;BME280;43403;51.948;5.922;2023-01-23T11:20:22;103721.72;;;5.35;100.00
57568;BME280;43403;51.948;5.922;2023-01-23T11:25:32;103709.41;;;5.41;100.00
57568;BME280;43403;51.948;5.922;2023-01-23T11:28:02;103714.56;;;5.42;100.00
57568;BME280;43403;51.948;5.922;2023-01-23T11:30:32;103713.72;;;5.42;100.00
57568;BME280;43403;51.948;5.922;2023-01-23T11:33:11;103716.28;;;5.43;100.00
57568;BME280;43403;51.948;5.922;2023-01-23T11:35:48;103711.19;;;5.39;100.00
57568;BME280;43403;51.948;5.922;2023-01-23T11:38:16;103727.97;;;5.28;100.00
57568;BME280;43403;51.948;5.922;2023-01-23T11:40:56;103723.50;;;5.33;100.00
57568;BME280;43403;51.948;5.922;2023-01-23T11:43:22;103728.56;;;5.38;100.00
57568;BME280;43403;51.948;5.922;2023-01-23T11:49:10;103716.91;;;5.53;100.00
57568;BME280;43403;51.948;5.922;2023-01-23T12:12:36;103720.31;;;5.55;100.00
57568;BME280;43403;51.948;5.922;2023-01-23T12:15:10;103725.50;;;5.55;100.00
57568;BME280;43403;51.948;5.922;2023-01-23T12:22:57;103709.78;;;5.58;100.00
57568;BME280;43403;51.948;5.922;2023-01-23T12:25:34;103713.31;;;5.57;100.00
57568;BME280;43403;51.948;5.922;2023-01-23T12:30:49;103704.75;;;5.52;100.00
57568;BME280;43403;51.948;5.922;2023-01-23T12:33:23;103713.31;;;5.57;100.00
57568;BME280;43403;51.948;5.922;2023-01-23T12:41:14;103703.78;;;5.56;100.00
57568;BME280;43403;51.948;5.922;2023-01-23T12:43:51;103705.38;;;5.60;100.00
57568;BME280;43403;51.948;5.922;2023-01-23T12:46:29;103705.31;;;5.63;100.00
57568;BME280;43403;51.948;5.922;2023-01-23T12:49:02;103711.41;;;5.62;100.00
57568;BME280;43403;51.948;5.922;2023-01-23T12:51:35;103707.00;;;5.64;100.00
57568;BME280;43403;51.948;5.922;2023-01-23T12:54:05;103698.16;;;5.70;100.00
57568;BME280;43403;51.948;5.922;2023-01-23T12:56:32;103699.66;;;5.79;100.00
57568;BME280;43403;51.948;5.922;2023-01-23T13:06:34;103693.28;;;5.89;100.00
57568;BME280;43403;51.948;5.922;2023-01-23T13:09:06;103694.97;;;5.90;100.00
57568;BME280;43403;51.948;5.922;2023-01-23T13:14:20;103701.94;;;5.89;100.00
57568;BME280;43403;51.948;5.922;2023-01-23T13:16:57;103699.34;;;5.89;100.00
57568;BME280;43403;51.948;5.922;2023-01-23T13:19:25;103700.19;;;5.90;100.00
57568;BME280;43403;51.948;5.922;2023-01-23T13:22:12;103708.25;;;5.82;100.00
57568;BME280;43403;51.948;5.922;2023-01-23T13:24:50;103708.34;;;5.79;100.00
57568;BME280;43403;51.948;5.922;2023-01-23T13:27:36;103717.13;;;5.75;100.00
57568;BME280;43403;51.948;5.922;2023-01-23T13:32:59;103716.50;;;5.67;100.00
57568;BME280;43403;51.948;5.922;2023-01-23T13:49:07;103722.59;;;5.66;100.00
57568;BME280;43403;51.948;5.922;2023-01-23T13:52:12;103717.38;;;5.66;100.00
57568;BME280;43403;51.948;5.922;2023-01-23T13:55:17;103717.41;;;5.64;100.00
57568;BME280;43403;51.948;5.922;2023-01-23T13:58:17;103720.97;;;5.62;100.00
57568;BME280;43403;51.948;5.922;2023-01-23T14:01:12;103731.50;;;5.59;100.00
57568;BME280;43403;51.948;5.922;2023-01-23T14:04:13;103725.31;;;5.63;100.00
57568;BME280;43403;51.948;5.922;2023-01-23T14:07:28;103720.94;;;5.63;100.00
57568;BME280;43403;51.948;5.922;2023-01-23T14:10:30;103727.63;;;5.72;100.00
57568;BME280;43403;51.948;5.922;2023-01-23T14:13:15;103730.19;;;5.73;100.00
57568;BME280;43403;51.948;5.922;2023-01-23T14:15:55;103733.66;;;5.74;100.00
57568;BME280;43403;51.948;5.922;2023-01-23T14:18:54;103726.81;;;5.70;100.00
57568;BME280;43403;51.948;5.922;2023-01-23T14:21:36;103725.16;;;5.67;100.00
57568;BME280;43403;51.948;5.922;2023-01-23T14:24:26;103724.38;;;5.64;100.00
57568;BME280;43403;51.948;5.922;2023-01-23T14:26:58;103719.72;;;5.77;100.00